sensor_id;sensor_type;location;lat;lon;timestamp;P1;durP1;ratioP1;P2;durP2;ratioP2
72801;SDS011;61891;55.818;37.084;2023-10-09T00:00:50;0.38;;;0.28;;
72801;SDS011;61891;55.818;37.084;2023-10-09T00:03:21;0.17;;;0.17;;
72801;SDS011;61891;55.818;37.084;2023-10-09T00:05:53;0.20;;;0.20;;
72801;SDS011;61891;55.818;37.084;2023-10-09T00:08:19;0.35;;;0.20;;
72801;SDS011;61891;55.818;37.084;2023-10-09T00:11:00;0.20;;;0.20;;
72801;SDS011;61891;55.818;37.084;2023-10-09T00:13:41;0.20;;;0.20;;
72801;SDS011;61891;55.818;37.084;2023-10-09T00:16:26;0.20;;;0.20;;
72801;SDS011;61891;55.818;37.084;2023-10-09T00:19:15;0.10;;;0.10;;
72801;SDS011;61891;55.818;37.084;2023-10-09T00:21:46;0.25;;;0.25;;
72801;SDS011;61891;55.818;37.084;2023-10-09T00:24:13;0.20;;;0.20;;
72801;SDS011;61891;55.818;37.084;2023-10-09T00:26:40;0.20;;;0.20;;
72801;SDS011;61891;55.818;37.084;2023-10-09T00:29:12;0.35;;;0.17;;
72801;SDS011;61891;55.818;37.084;2023-10-09T00:31:51;0.25;;;0.22;;
72801;SDS011;61891;55.818;37.084;2023-10-09T00:34:31;0.30;;;0.30;;
72801;SDS011;61891;55.818;37.084;2023-10-09T00:37:05;0.30;;;0.30;;
72801;SDS011;61891;55.818;37.084;2023-10-09T00:39:36;0.20;;;0.20;;
72801;SDS011;61891;55.818;37.084;2023-10-09T00:42:02;0.28;;;0.28;;
72801;SDS011;61891;55.818;37.084;2023-10-09T00:44:31;0.25;;;0.25;;
72801;SDS011;61891;55.818;37.084;2023-10-09T00:47:10;0.30;;;0.30;;
72801;SDS011;61891;55.818;37.084;2023-10-09T00:49:52;0.25;;;0.25;;
72801;SDS011;61891;55.818;37.084;2023-10-09T00:52:31;0.20;;;0.20;;
72801;SDS011;61891;55.818;37.084;2023-10-09T00:55:27;0.40;;;0.40;;
72801;SDS011;61891;55.818;37.084;2023-10-09T00:58:05;0.55;;;0.47;;
72801;SDS011;61891;55.818;37.084;2023-10-09T01:00:39;0.30;;;0.30;;
72801;SDS011;61891;55.818;37.084;2023-10-09T01:03:09;0.20;;;0.20;;
72801;SDS011;61891;55.818;37.084;2023-10-09T01:05:42;0.38;;;0.30;;
72801;SDS011;61891;55.818;37.084;2023-10-09T01:08:18;0.30;;;0.30;;
72801;SDS011;61891;55.818;37.084;2023-10-09T01:10:57;0.20;;;0.20;;
72801;SDS011;61891;55.818;37.084;2023-10-09T01:13:35;0.10;;;0.00;;
72801;SDS011;61891;55.818;37.084;2023-10-09T01:16:21;0.20;;;0.20;;
72801;SDS011;61891;55.818;37.084;2023-10-09T01:18:49;0.30;;;0.20;;
72801;SDS011;61891;55.818;37.084;2023-10-09T01:21:17;0.30;;;0.30;;
72801;SDS011;61891;55.818;37.084;2023-10-09T01:23:46;0.30;;;0.30;;
72801;SDS011;61891;55.818;37.084;2023-10-09T01:26:44;0.20;;;0.20;;
72801;SDS011;61891;55.818;37.084;2023-10-09T01:31:46;0.45;;;0.45;;
72801;SDS011;61891;55.818;37.084;2023-10-09T01:34:23;0.20;;;0.20;;
72801;SDS011;61891;55.818;37.084;2023-10-09T01:37:09;0.30;;;0.30;;
72801;SDS011;61891;55.818;37.084;2023-10-09T01:39:48;0.20;;;0.20;;
72801;SDS011;61891;55.818;37.084;2023-10-09T01:42:17;0.43;;;0.43;;
72801;SDS011;61891;55.818;37.084;2023-10-09T01:44:55;0.52;;;0.40;;
72801;SDS011;61891;55.818;37.084;2023-10-09T01:50:03;0.43;;;0.22;;
72801;SDS011;61891;55.818;37.084;2023-10-09T01:52:30;0.30;;;0.30;;
72801;SDS011;61891;55.818;37.084;2023-10-09T01:54:56;1.25;;;0.40;;
72801;SDS011;61891;55.818;37.084;2023-10-09T01:57:38;0.20;;;0.20;;
72801;SDS011;61891;55.818;37.084;2023-10-09T02:00:05;0.20;;;0.20;;
72801;SDS011;61891;55.818;37.084;2023-10-09T02:02:38;0.55;;;0.28;;
72801;SDS011;61891;55.818;37.084;2023-10-09T02:05:08;0.52;;;0.30;;
72801;SDS011;61891;55.818;37.084;2023-10-09T02:07:39;0.47;;;0.47;;
72801;SDS011;61891;55.818;37.084;2023-10-09T02:10:18;0.00;;;0.00;;
72801;SDS011;61891;55.818;37.084;2023-10-09T02:12:59;0.70;;;0.40;;
72801;SDS011;61891;55.818;37.084;2023-10-09T02:15:38;0.28;;;0.28;;
72801;SDS011;61891;55.818;37.084;2023-10-09T02:18:26;0.30;;;0.30;;
72801;SDS011;61891;55.818;37.084;2023-10-09T02:23:42;0.45;;;0.45;;
72801;SDS011;61891;55.818;37.084;2023-10-09T02:26:11;0.30;;;0.30;;
72801;SDS011;61891;55.818;37.084;2023-10-09T02:28:54;0.30;;;0.30;;
72801;SDS011;61891;55.818;37.084;2023-10-09T02:31:26;0.30;;;0.30;;
72801;SDS011;61891;55.818;37.084;2023-10-09T02:34:01;0.50;;;0.50;;
72801;SDS011;61891;55.818;37.084;2023-10-09T02:39:03;0.30;;;0.30;;
72801;SDS011;61891;55.818;37.084;2023-10-09T02:41:31;0.77;;;0.40;;
72801;SDS011;61891;55.818;37.084;2023-10-09T02:44:00;0.50;;;0.40;;
72801;SDS011;61891;55.818;37.084;2023-10-09T02:46:36;0.50;;;0.30;;
72801;SDS011;61891;55.818;37.084;2023-10-09T02:49:02;0.40;;;0.30;;
72801;SDS011;61891;55.818;37.084;2023-10-09T02:51:31;0.32;;;0.30;;
72801;SDS011;61891;55.818;37.084;2023-10-09T02:53:59;0.32;;;0.32;;
72801;SDS011;61891;55.818;37.084;2023-10-09T02:56:44;0.47;;;0.08;;
72801;SDS011;61891;55.818;37.084;2023-10-09T02:59:13;0.45;;;0.45;;
72801;SDS011;61891;55.818;37.084;2023-10-09T03:01:40;0.30;;;0.30;;
72801;SDS011;61891;55.818;37.084;2023-10-09T03:04:07;0.45;;;0.40;;
72801;SDS011;61891;55.818;37.084;2023-10-09T03:06:36;0.63;;;0.63;;
72801;SDS011;61891;55.818;37.084;2023-10-09T03:09:09;0.38;;;0.38;;
72801;SDS011;61891;55.818;37.084;2023-10-09T03:11:45;0.50;;;0.50;;
72801;SDS011;61891;55.818;37.084;2023-10-09T03:14:19;0.40;;;0.40;;
72801;SDS011;61891;55.818;37.084;2023-10-09T03:16:46;0.30;;;0.30;;
72801;SDS011;61891;55.818;37.084;2023-10-09T03:19:15;1.27;;;0.38;;
72801;SDS011;61891;55.818;37.084;2023-10-09T03:21:42;0.40;;;0.35;;
72801;SDS011;61891;55.818;37.084;2023-10-09T03:24:09;0.40;;;0.40;;
72801;SDS011;61891;55.818;37.084;2023-10-09T03:26:36;0.40;;;0.40;;
72801;SDS011;61891;55.818;37.084;2023-10-09T03:29:03;0.30;;;0.30;;
72801;SDS011;61891;55.818;37.084;2023-10-09T03:31:32;0.38;;;0.35;;
72801;SDS011;61891;55.818;37.084;2023-10-09T03:36:24;0.40;;;0.32;;
72801;SDS011;61891;55.818;37.084;2023-10-09T03:38:52;0.73;;;0.50;;
72801;SDS011;61891;55.818;37.084;2023-10-09T03:41:26;0.43;;;0.43;;
72801;SDS011;61891;55.818;37.084;2023-10-09T03:43:52;0.30;;;0.30;;
72801;SDS011;61891;55.818;37.084;2023-10-09T03:46:22;0.40;;;0.40;;
72801;SDS011;61891;55.818;37.084;2023-10-09T03:48:57;0.55;;;0.40;;
72801;SDS011;61891;55.818;37.084;2023-10-09T03:51:27;0.30;;;0.30;;
72801;SDS011;61891;55.818;37.084;2023-10-09T03:53:53;0.38;;;0.38;;
72801;SDS011;61891;55.818;37.084;2023-10-09T03:56:19;0.47;;;0.47;;
72801;SDS011;61891;55.818;37.084;2023-10-09T03:58:49;0.47;;;0.32;;
72801;SDS011;61891;55.818;37.084;2023-10-09T04:01:18;0.20;;;0.05;;
72801;SDS011;61891;55.818;37.084;2023-10-09T04:03:53;0.50;;;0.30;;
72801;SDS011;61891;55.818;37.084;2023-10-09T04:06:29;0.30;;;0.20;;
72801;SDS011;61891;55.818;37.084;2023-10-09T04:09:02;0.28;;;0.28;;
72801;SDS011;61891;55.818;37.084;2023-10-09T04:14:12;0.25;;;0.20;;
72801;SDS011;61891;55.818;37.084;2023-10-09T04:16:53;0.30;;;0.20;;
72801;SDS011;61891;55.818;37.084;2023-10-09T04:19:30;0.50;;;0.10;;
72801;SDS011;61891;55.818;37.084;2023-10-09T04:22:04;0.30;;;0.30;;
72801;SDS011;61891;55.818;37.084;2023-10-09T04:24:34;0.25;;;0.00;;
72801;SDS011;61891;55.818;37.084;2023-10-09T04:27:09;0.35;;;0.30;;
72801;SDS011;61891;55.818;37.084;2023-10-09T04:29:35;0.38;;;0.30;;
72801;SDS011;61891;55.818;37.084;2023-10-09T04:32:04;0.20;;;0.20;;
72801;SDS011;61891;55.818;37.084;2023-10-09T04:34:41;0.20;;;0.20;;
72801;SDS011;61891;55.818;37.084;2023-10-09T04:37:14;0.30;;;0.30;;
72801;SDS011;61891;55.818;37.084;2023-10-09T04:39:43;0.40;;;0.40;;
72801;SDS011;61891;55.818;37.084;2023-10-09T04:42:16;0.38;;;0.28;;
72801;SDS011;61891;55.818;37.084;2023-10-09T04:44:51;0.40;;;0.40;;
72801;SDS011;61891;55.818;37.084;2023-10-09T04:47:35;0.25;;;0.25;;
72801;SDS011;61891;55.818;37.084;2023-10-09T04:50:08;0.20;;;0.20;;
72801;SDS011;61891;55.818;37.084;2023-10-09T04:52:44;0.43;;;0.40;;
72801;SDS011;61891;55.818;37.084;2023-10-09T04:55:10;0.40;;;0.40;;
72801;SDS011;61891;55.818;37.084;2023-10-09T04:57:36;0.40;;;0.40;;
72801;SDS011;61891;55.818;37.084;2023-10-09T05:02:58;0.52;;;0.52;;
72801;SDS011;61891;55.818;37.084;2023-10-09T05:05:33;0.32;;;0.32;;
72801;SDS011;61891;55.818;37.084;2023-10-09T05:08:09;0.47;;;0.45;;
72801;SDS011;61891;55.818;37.084;2023-10-09T05:10:45;0.40;;;0.40;;
72801;SDS011;61891;55.818;37.084;2023-10-09T05:13:28;0.60;;;0.40;;
72801;SDS011;61891;55.818;37.084;2023-10-09T05:16:13;0.65;;;0.30;;
72801;SDS011;61891;55.818;37.084;2023-10-09T05:18:51;0.32;;;0.32;;
72801;SDS011;61891;55.818;37.084;2023-10-09T05:21:37;1.48;;;0.40;;
72801;SDS011;61891;55.818;37.084;2023-10-09T05:24:07;0.40;;;0.40;;
72801;SDS011;61891;55.818;37.084;2023-10-09T05:26:44;0.80;;;0.30;;
72801;SDS011;61891;55.818;37.084;2023-10-09T05:29:12;0.50;;;0.50;;
72801;SDS011;61891;55.818;37.084;2023-10-09T05:31:56;0.73;;;0.73;;
72801;SDS011;61891;55.818;37.084;2023-10-09T05:34:28;0.30;;;0.30;;
72801;SDS011;61891;55.818;37.084;2023-10-09T05:37:13;0.50;;;0.47;;
72801;SDS011;61891;55.818;37.084;2023-10-09T05:39:44;0.52;;;0.30;;
72801;SDS011;61891;55.818;37.084;2023-10-09T05:42:24;0.77;;;0.57;;
72801;SDS011;61891;55.818;37.084;2023-10-09T05:44:54;1.20;;;0.50;;
72801;SDS011;61891;55.818;37.084;2023-10-09T05:47:39;1.05;;;0.95;;
72801;SDS011;61891;55.818;37.084;2023-10-09T05:52:44;2.30;;;0.80;;
72801;SDS011;61891;55.818;37.084;2023-10-09T05:55:22;0.77;;;0.40;;
72801;SDS011;61891;55.818;37.084;2023-10-09T05:57:50;0.85;;;0.55;;
72801;SDS011;61891;55.818;37.084;2023-10-09T06:00:34;0.63;;;0.50;;
72801;SDS011;61891;55.818;37.084;2023-10-09T06:03:19;0.70;;;0.45;;
72801;SDS011;61891;55.818;37.084;2023-10-09T06:05:45;0.80;;;0.52;;
72801;SDS011;61891;55.818;37.084;2023-10-09T06:08:30;0.50;;;0.25;;
72801;SDS011;61891;55.818;37.084;2023-10-09T06:11:15;0.70;;;0.70;;
72801;SDS011;61891;55.818;37.084;2023-10-09T06:13:59;0.70;;;0.50;;
72801;SDS011;61891;55.818;37.084;2023-10-09T06:16:29;0.65;;;0.65;;
72801;SDS011;61891;55.818;37.084;2023-10-09T06:19:05;0.65;;;0.60;;
72801;SDS011;61891;55.818;37.084;2023-10-09T06:21:38;1.30;;;0.70;;
72801;SDS011;61891;55.818;37.084;2023-10-09T06:24:25;0.35;;;0.35;;
72801;SDS011;61891;55.818;37.084;2023-10-09T06:26:59;0.70;;;0.70;;
72801;SDS011;61891;55.818;37.084;2023-10-09T06:29:25;0.45;;;0.40;;
72801;SDS011;61891;55.818;37.084;2023-10-09T06:32:04;0.80;;;0.68;;
72801;SDS011;61891;55.818;37.084;2023-10-09T06:35:00;0.98;;;0.98;;
72801;SDS011;61891;55.818;37.084;2023-10-09T06:37:46;1.05;;;0.50;;
72801;SDS011;61891;55.818;37.084;2023-10-09T06:40:30;0.60;;;0.60;;
72801;SDS011;61891;55.818;37.084;2023-10-09T06:43:16;1.15;;;0.75;;
72801;SDS011;61891;55.818;37.084;2023-10-09T06:45:43;0.60;;;0.60;;
72801;SDS011;61891;55.818;37.084;2023-10-09T06:48:10;0.30;;;0.30;;
72801;SDS011;61891;55.818;37.084;2023-10-09T06:50:58;0.75;;;0.65;;
72801;SDS011;61891;55.818;37.084;2023-10-09T06:53:46;0.47;;;0.38;;
72801;SDS011;61891;55.818;37.084;2023-10-09T06:56:23;0.30;;;0.10;;
72801;SDS011;61891;55.818;37.084;2023-10-09T06:58:58;0.30;;;0.30;;
72801;SDS011;61891;55.818;37.084;2023-10-09T07:01:46;0.98;;;0.40;;
72801;SDS011;61891;55.818;37.084;2023-10-09T07:04:37;0.52;;;0.50;;
72801;SDS011;61891;55.818;37.084;2023-10-09T07:07:03;0.65;;;0.50;;
72801;SDS011;61891;55.818;37.084;2023-10-09T07:09:38;0.95;;;0.52;;
72801;SDS011;61891;55.818;37.084;2023-10-09T07:12:39;0.70;;;0.70;;
72801;SDS011;61891;55.818;37.084;2023-10-09T07:15:09;0.68;;;0.57;;
72801;SDS011;61891;55.818;37.084;2023-10-09T07:17:54;0.80;;;0.73;;
72801;SDS011;61891;55.818;37.084;2023-10-09T07:20:21;0.50;;;0.40;;
72801;SDS011;61891;55.818;37.084;2023-10-09T07:23:03;0.50;;;0.43;;
72801;SDS011;61891;55.818;37.084;2023-10-09T07:25:43;0.50;;;0.50;;
72801;SDS011;61891;55.818;37.084;2023-10-09T07:28:24;0.40;;;0.40;;
72801;SDS011;61891;55.818;37.084;2023-10-09T07:31:02;0.73;;;0.70;;
72801;SDS011;61891;55.818;37.084;2023-10-09T07:33:31;0.63;;;0.57;;
72801;SDS011;61891;55.818;37.084;2023-10-09T07:36:16;0.60;;;0.40;;
72801;SDS011;61891;55.818;37.084;2023-10-09T07:38:55;0.88;;;0.20;;
72801;SDS011;61891;55.818;37.084;2023-10-09T07:43:46;0.73;;;0.40;;
72801;SDS011;61891;55.818;37.084;2023-10-09T07:46:17;0.40;;;0.40;;
72801;SDS011;61891;55.818;37.084;2023-10-09T07:48:59;0.30;;;0.30;;
72801;SDS011;61891;55.818;37.084;2023-10-09T07:54:04;0.22;;;0.22;;
72801;SDS011;61891;55.818;37.084;2023-10-09T07:56:33;0.50;;;0.50;;
72801;SDS011;61891;55.818;37.084;2023-10-09T07:59:07;0.60;;;0.60;;
72801;SDS011;61891;55.818;37.084;2023-10-09T08:01:40;0.30;;;0.30;;
72801;SDS011;61891;55.818;37.084;2023-10-09T08:04:28;0.52;;;0.40;;
72801;SDS011;61891;55.818;37.084;2023-10-09T08:07:14;0.40;;;0.40;;
72801;SDS011;61891;55.818;37.084;2023-10-09T08:10:02;0.20;;;0.10;;
72801;SDS011;61891;55.818;37.084;2023-10-09T08:12:45;0.10;;;0.05;;
72801;SDS011;61891;55.818;37.084;2023-10-09T08:15:15;0.57;;;0.57;;
72801;SDS011;61891;55.818;37.084;2023-10-09T08:20:22;0.50;;;0.40;;
72801;SDS011;61891;55.818;37.084;2023-10-09T08:22:53;0.40;;;0.40;;
72801;SDS011;61891;55.818;37.084;2023-10-09T08:25:23;0.40;;;0.40;;
72801;SDS011;61891;55.818;37.084;2023-10-09T08:27:53;0.40;;;0.40;;
72801;SDS011;61891;55.818;37.084;2023-10-09T08:30:44;1.20;;;0.57;;
72801;SDS011;61891;55.818;37.084;2023-10-09T08:33:16;0.77;;;0.77;;
72801;SDS011;61891;55.818;37.084;2023-10-09T08:35:51;0.00;;;0.00;;
72801;SDS011;61891;55.818;37.084;2023-10-09T08:38:21;0.70;;;0.38;;
72801;SDS011;61891;55.818;37.084;2023-10-09T08:40:52;0.43;;;0.43;;
72801;SDS011;61891;55.818;37.084;2023-10-09T08:43:23;0.43;;;0.43;;
72801;SDS011;61891;55.818;37.084;2023-10-09T08:45:52;0.80;;;0.35;;
72801;SDS011;61891;55.818;37.084;2023-10-09T08:48:20;0.35;;;0.10;;
72801;SDS011;61891;55.818;37.084;2023-10-09T08:50:52;1.20;;;0.20;;
72801;SDS011;61891;55.818;37.084;2023-10-09T08:53:21;0.95;;;0.60;;
72801;SDS011;61891;55.818;37.084;2023-10-09T08:55:49;0.70;;;0.60;;
72801;SDS011;61891;55.818;37.084;2023-10-09T08:58:17;0.65;;;0.60;;
72801;SDS011;61891;55.818;37.084;2023-10-09T09:00:50;0.60;;;0.60;;
72801;SDS011;61891;55.818;37.084;2023-10-09T09:03:20;0.65;;;0.60;;
72801;SDS011;61891;55.818;37.084;2023-10-09T09:05:56;0.50;;;0.40;;
72801;SDS011;61891;55.818;37.084;2023-10-09T09:08:30;0.57;;;0.55;;
72801;SDS011;61891;55.818;37.084;2023-10-09T09:14:07;0.70;;;0.50;;
72801;SDS011;61891;55.818;37.084;2023-10-09T09:19:09;0.63;;;0.63;;
72801;SDS011;61891;55.818;37.084;2023-10-09T09:24:11;0.47;;;0.40;;
72801;SDS011;61891;55.818;37.084;2023-10-09T09:26:44;0.40;;;0.40;;
72801;SDS011;61891;55.818;37.084;2023-10-09T09:29:38;0.10;;;0.10;;
72801;SDS011;61891;55.818;37.084;2023-10-09T09:32:05;0.40;;;0.40;;
72801;SDS011;61891;55.818;37.084;2023-10-09T09:34:49;0.40;;;0.40;;
72801;SDS011;61891;55.818;37.084;2023-10-09T09:37:23;0.60;;;0.57;;
72801;SDS011;61891;55.818;37.084;2023-10-09T09:40:08;0.47;;;0.47;;
72801;SDS011;61891;55.818;37.084;2023-10-09T09:42:59;0.50;;;0.50;;
72801;SDS011;61891;55.818;37.084;2023-10-09T09:45:37;0.50;;;0.50;;
72801;SDS011;61891;55.818;37.084;2023-10-09T09:48:04;0.30;;;0.10;;
72801;SDS011;61891;55.818;37.084;2023-10-09T09:50:38;0.50;;;0.40;;
72801;SDS011;61891;55.818;37.084;2023-10-09T09:53:12;0.40;;;0.30;;
72801;SDS011;61891;55.818;37.084;2023-10-09T09:55:49;0.52;;;0.50;;
72801;SDS011;61891;55.818;37.084;2023-10-09T09:58:24;0.55;;;0.50;;
72801;SDS011;61891;55.818;37.084;2023-10-09T10:00:53;1.42;;;0.50;;
72801;SDS011;61891;55.818;37.084;2023-10-09T10:03:34;1.17;;;0.75;;
72801;SDS011;61891;55.818;37.084;2023-10-09T10:06:03;0.57;;;0.52;;
72801;SDS011;61891;55.818;37.084;2023-10-09T10:08:35;0.55;;;0.52;;
72801;SDS011;61891;55.818;37.084;2023-10-09T10:11:05;0.45;;;0.45;;
72801;SDS011;61891;55.818;37.084;2023-10-09T10:16:21;0.50;;;0.50;;
72801;SDS011;61891;55.818;37.084;2023-10-09T10:21:35;0.68;;;0.68;;
72801;SDS011;61891;55.818;37.084;2023-10-09T10:29:37;0.50;;;0.50;;
72801;SDS011;61891;55.818;37.084;2023-10-09T10:32:04;0.40;;;0.40;;
72801;SDS011;61891;55.818;37.084;2023-10-09T10:37:15;0.20;;;0.00;;
72801;SDS011;61891;55.818;37.084;2023-10-09T10:39:53;0.40;;;0.40;;
72801;SDS011;61891;55.818;37.084;2023-10-09T10:42:24;0.25;;;0.10;;
72801;SDS011;61891;55.818;37.084;2023-10-09T10:45:03;0.55;;;0.55;;
72801;SDS011;61891;55.818;37.084;2023-10-09T10:47:49;1.70;;;1.17;;
72801;SDS011;61891;55.818;37.084;2023-10-09T10:50:17;1.20;;;0.50;;
72801;SDS011;61891;55.818;37.084;2023-10-09T10:53:14;1.17;;;0.28;;
72801;SDS011;61891;55.818;37.084;2023-10-09T10:58:54;0.63;;;0.45;;
72801;SDS011;61891;55.818;37.084;2023-10-09T11:01:33;0.75;;;0.75;;
72801;SDS011;61891;55.818;37.084;2023-10-09T11:04:18;1.05;;;0.60;;
72801;SDS011;61891;55.818;37.084;2023-10-09T11:07:03;1.38;;;1.02;;
72801;SDS011;61891;55.818;37.084;2023-10-09T11:09:48;2.15;;;0.82;;
72801;SDS011;61891;55.818;37.084;2023-10-09T11:15:08;0.60;;;0.60;;
72801;SDS011;61891;55.818;37.084;2023-10-09T11:17:59;1.02;;;0.60;;
72801;SDS011;61891;55.818;37.084;2023-10-09T11:20:31;0.73;;;0.68;;
72801;SDS011;61891;55.818;37.084;2023-10-09T11:23:03;1.17;;;0.22;;
72801;SDS011;61891;55.818;37.084;2023-10-09T11:25:38;0.73;;;0.50;;
72801;SDS011;61891;55.818;37.084;2023-10-09T11:28:21;0.70;;;0.70;;
72801;SDS011;61891;55.818;37.084;2023-10-09T11:31:09;2.70;;;1.35;;
72801;SDS011;61891;55.818;37.084;2023-10-09T11:33:46;0.93;;;0.70;;
72801;SDS011;61891;55.818;37.084;2023-10-09T11:36:21;1.20;;;0.60;;
72801;SDS011;61891;55.818;37.084;2023-10-09T11:39:00;0.60;;;0.60;;
72801;SDS011;61891;55.818;37.084;2023-10-09T11:41:45;1.83;;;1.00;;
72801;SDS011;61891;55.818;37.084;2023-10-09T11:44:15;0.95;;;0.65;;
72801;SDS011;61891;55.818;37.084;2023-10-09T11:46:59;1.25;;;0.50;;
72801;SDS011;61891;55.818;37.084;2023-10-09T11:49:51;1.15;;;0.60;;
72801;SDS011;61891;55.818;37.084;2023-10-09T11:52:32;1.23;;;0.50;;
72801;SDS011;61891;55.818;37.084;2023-10-09T11:55:02;0.90;;;0.70;;
72801;SDS011;61891;55.818;37.084;2023-10-09T11:57:30;0.57;;;0.55;;
72801;SDS011;61891;55.818;37.084;2023-10-09T11:59:56;1.40;;;0.80;;
72801;SDS011;61891;55.818;37.084;2023-10-09T12:02:24;0.95;;;0.60;;
72801;SDS011;61891;55.818;37.084;2023-10-09T12:04:50;0.70;;;0.68;;
72801;SDS011;61891;55.818;37.084;2023-10-09T12:07:15;0.52;;;0.50;;
72801;SDS011;61891;55.818;37.084;2023-10-09T12:09:41;0.50;;;0.40;;
72801;SDS011;61891;55.818;37.084;2023-10-09T12:12:07;0.82;;;0.20;;
72801;SDS011;61891;55.818;37.084;2023-10-09T12:14:36;0.60;;;0.50;;
72801;SDS011;61891;55.818;37.084;2023-10-09T12:17:05;1.77;;;0.52;;
72801;SDS011;61891;55.818;37.084;2023-10-09T12:19:34;1.23;;;0.60;;
72801;SDS011;61891;55.818;37.084;2023-10-09T12:22:01;3.15;;;0.57;;
72801;SDS011;61891;55.818;37.084;2023-10-09T12:24:31;0.70;;;0.60;;
72801;SDS011;61891;55.818;37.084;2023-10-09T12:26:59;1.17;;;0.63;;
72801;SDS011;61891;55.818;37.084;2023-10-09T12:29:26;1.55;;;1.20;;
72801;SDS011;61891;55.818;37.084;2023-10-09T12:31:56;1.08;;;0.70;;
72801;SDS011;61891;55.818;37.084;2023-10-09T12:34:26;1.88;;;0.63;;
72801;SDS011;61891;55.818;37.084;2023-10-09T12:36:53;0.52;;;0.35;;
72801;SDS011;61891;55.818;37.084;2023-10-09T12:39:20;0.95;;;0.77;;
72801;SDS011;61891;55.818;37.084;2023-10-09T12:41:47;1.55;;;0.68;;
72801;SDS011;61891;55.818;37.084;2023-10-09T12:44:14;1.02;;;0.80;;
72801;SDS011;61891;55.818;37.084;2023-10-09T12:46:44;0.77;;;0.77;;
72801;SDS011;61891;55.818;37.084;2023-10-09T12:49:20;0.98;;;0.77;;
72801;SDS011;61891;55.818;37.084;2023-10-09T12:51:52;1.00;;;0.88;;
72801;SDS011;61891;55.818;37.084;2023-10-09T12:54:19;0.98;;;0.70;;
72801;SDS011;61891;55.818;37.084;2023-10-09T12:56:54;0.95;;;0.65;;
72801;SDS011;61891;55.818;37.084;2023-10-09T12:59:21;0.93;;;0.60;;
72801;SDS011;61891;55.818;37.084;2023-10-09T13:01:50;1.85;;;0.60;;
72801;SDS011;61891;55.818;37.084;2023-10-09T13:04:23;0.55;;;0.55;;
72801;SDS011;61891;55.818;37.084;2023-10-09T13:06:57;0.80;;;0.60;;
72801;SDS011;61891;55.818;37.084;2023-10-09T13:09:28;1.85;;;0.98;;
72801;SDS011;61891;55.818;37.084;2023-10-09T13:12:01;0.68;;;0.68;;
72801;SDS011;61891;55.818;37.084;2023-10-09T13:14:28;0.88;;;0.60;;
72801;SDS011;61891;55.818;37.084;2023-10-09T13:16:54;0.80;;;0.60;;
72801;SDS011;61891;55.818;37.084;2023-10-09T13:19:20;1.52;;;0.90;;
72801;SDS011;61891;55.818;37.084;2023-10-09T13:21:50;1.05;;;0.57;;
72801;SDS011;61891;55.818;37.084;2023-10-09T13:24:16;0.93;;;0.77;;
72801;SDS011;61891;55.818;37.084;2023-10-09T13:26:43;0.55;;;0.55;;
72801;SDS011;61891;55.818;37.084;2023-10-09T13:29:17;0.77;;;0.65;;
72801;SDS011;61891;55.818;37.084;2023-10-09T13:31:48;1.42;;;0.38;;
72801;SDS011;61891;55.818;37.084;2023-10-09T13:34:18;0.80;;;0.63;;
72801;SDS011;61891;55.818;37.084;2023-10-09T13:36:44;1.23;;;0.88;;
72801;SDS011;61891;55.818;37.084;2023-10-09T13:39:19;1.02;;;0.70;;
72801;SDS011;61891;55.818;37.084;2023-10-09T13:41:53;1.67;;;0.90;;
72801;SDS011;61891;55.818;37.084;2023-10-09T13:44:33;1.00;;;0.77;;
72801;SDS011;61891;55.818;37.084;2023-10-09T13:47:01;1.08;;;0.75;;
72801;SDS011;61891;55.818;37.084;2023-10-09T13:49:31;1.63;;;0.88;;
72801;SDS011;61891;55.818;37.084;2023-10-09T13:51:58;1.13;;;1.02;;
72801;SDS011;61891;55.818;37.084;2023-10-09T13:54:29;1.20;;;0.90;;
72801;SDS011;61891;55.818;37.084;2023-10-09T13:56:59;0.90;;;0.80;;
72801;SDS011;61891;55.818;37.084;2023-10-09T13:59:25;1.02;;;0.80;;
72801;SDS011;61891;55.818;37.084;2023-10-09T14:01:51;0.82;;;0.82;;
72801;SDS011;61891;55.818;37.084;2023-10-09T14:04:21;1.27;;;0.90;;
72801;SDS011;61891;55.818;37.084;2023-10-09T14:06:49;0.82;;;0.60;;
72801;SDS011;61891;55.818;37.084;2023-10-09T14:09:27;1.10;;;1.00;;
72801;SDS011;61891;55.818;37.084;2023-10-09T14:11:57;1.05;;;0.80;;
72801;SDS011;61891;55.818;37.084;2023-10-09T14:14:38;0.93;;;0.75;;
72801;SDS011;61891;55.818;37.084;2023-10-09T14:17:16;0.93;;;0.40;;
72801;SDS011;61891;55.818;37.084;2023-10-09T14:19:50;0.90;;;0.70;;
72801;SDS011;61891;55.818;37.084;2023-10-09T14:22:18;0.73;;;0.60;;
72801;SDS011;61891;55.818;37.084;2023-10-09T14:24:46;0.80;;;0.77;;
72801;SDS011;61891;55.818;37.084;2023-10-09T14:27:15;0.75;;;0.70;;
72801;SDS011;61891;55.818;37.084;2023-10-09T14:29:47;0.65;;;0.40;;
72801;SDS011;61891;55.818;37.084;2023-10-09T14:32:16;0.88;;;0.70;;
72801;SDS011;61891;55.818;37.084;2023-10-09T14:34:43;0.95;;;0.80;;
72801;SDS011;61891;55.818;37.084;2023-10-09T14:37:15;1.13;;;1.02;;
72801;SDS011;61891;55.818;37.084;2023-10-09T14:39:41;1.10;;;0.88;;
72801;SDS011;61891;55.818;37.084;2023-10-09T14:42:08;0.82;;;0.60;;
72801;SDS011;61891;55.818;37.084;2023-10-09T14:44:37;1.15;;;0.70;;
72801;SDS011;61891;55.818;37.084;2023-10-09T14:49:31;1.00;;;0.70;;
72801;SDS011;61891;55.818;37.084;2023-10-09T14:52:09;1.20;;;0.70;;
72801;SDS011;61891;55.818;37.084;2023-10-09T14:54:36;1.20;;;0.70;;
72801;SDS011;61891;55.818;37.084;2023-10-09T14:57:04;1.58;;;0.90;;
72801;SDS011;61891;55.818;37.084;2023-10-09T14:59:32;1.70;;;0.90;;
72801;SDS011;61891;55.818;37.084;2023-10-09T15:01:59;1.02;;;0.85;;
72801;SDS011;61891;55.818;37.084;2023-10-09T15:04:25;2.05;;;1.20;;
72801;SDS011;61891;55.818;37.084;2023-10-09T15:06:51;3.17;;;0.88;;
72801;SDS011;61891;55.818;37.084;2023-10-09T15:09:20;1.52;;;0.93;;
72801;SDS011;61891;55.818;37.084;2023-10-09T15:11:54;1.48;;;1.00;;
72801;SDS011;61891;55.818;37.084;2023-10-09T15:14:20;1.30;;;0.82;;
72801;SDS011;61891;55.818;37.084;2023-10-09T15:16:47;2.38;;;1.20;;
72801;SDS011;61891;55.818;37.084;2023-10-09T15:19:13;2.15;;;1.20;;
72801;SDS011;61891;55.818;37.084;2023-10-09T15:21:42;4.10;;;1.90;;
72801;SDS011;61891;55.818;37.084;2023-10-09T15:24:15;2.88;;;1.23;;
72801;SDS011;61891;55.818;37.084;2023-10-09T15:26:43;1.70;;;1.27;;
72801;SDS011;61891;55.818;37.084;2023-10-09T15:29:11;1.88;;;0.70;;
72801;SDS011;61891;55.818;37.084;2023-10-09T15:31:37;1.58;;;0.90;;
72801;SDS011;61891;55.818;37.084;2023-10-09T15:34:04;1.77;;;1.20;;
72801;SDS011;61891;55.818;37.084;2023-10-09T15:36:34;3.03;;;1.40;;
72801;SDS011;61891;55.818;37.084;2023-10-09T15:39:01;3.63;;;1.40;;
72801;SDS011;61891;55.818;37.084;2023-10-09T15:41:29;3.30;;;2.00;;
72801;SDS011;61891;55.818;37.084;2023-10-09T15:44:00;2.47;;;1.30;;
72801;SDS011;61891;55.818;37.084;2023-10-09T15:46:27;1.20;;;0.88;;
72801;SDS011;61891;55.818;37.084;2023-10-09T15:48:59;1.70;;;1.02;;
72801;SDS011;61891;55.818;37.084;2023-10-09T15:51:26;1.48;;;0.70;;
72801;SDS011;61891;55.818;37.084;2023-10-09T15:53:54;1.30;;;0.70;;
72801;SDS011;61891;55.818;37.084;2023-10-09T15:56:19;1.20;;;0.90;;
72801;SDS011;61891;55.818;37.084;2023-10-09T15:58:54;2.30;;;1.00;;
72801;SDS011;61891;55.818;37.084;2023-10-09T16:01:22;1.17;;;1.08;;
72801;SDS011;61891;55.818;37.084;2023-10-09T16:03:48;0.60;;;0.55;;
72801;SDS011;61891;55.818;37.084;2023-10-09T16:06:16;1.42;;;0.90;;
72801;SDS011;61891;55.818;37.084;2023-10-09T16:08:44;0.77;;;0.60;;